AirNav   Air Wisconsin Up To $57,000 Bonus
 
 1413 users online  

43II Kirk Heliport
Merrillville, Indiana, USA

GOING TO MERRILLVILLE?


FAA INFORMATION EFFECTIVE 02 JANUARY 2020

Location

FAA Identifier: 43II
Lat/Long: 41-27-08.1310N 087-19-08.1270W
41-27.135517N 087-19.135450W
41.4522586,-87.3189242
(estimated)
Elevation: 710 ft. / 216 m (estimated)
Variation: 01W (1985)
From city: 2 miles SE of MERRILLVILLE, IN
Time zone: UTC -6 (UTC -5 during Daylight Saving Time)
Zip code: 46410

Heliport Operations

Heliport use: Private use. Permission required prior to landing
Activation date: 09/1987
Control tower: no
ARTCC: CHICAGO CENTER
FSS: TERRE HAUTE FLIGHT SERVICE STATION
Attendance: MON-FRI 0800-1700
Wind indicator: no
Segmented circle: no

Heliport Communications

WX AWOS-3 at IGQ (11 nm NW): 119.275 (708-895-9526)
WX AWOS-3PT at GYY (11 nm NW): 134.575 (219-944-0010)
WX ASOS at VPZ (14 nm E): 125.875 (219-531-1770)
WX AWOS-AV at C56 (17 nm W): 119.125 (708-534-5256)

Nearby radio navigation aids

VOR radial/distance  VOR name  Freq  Var
CGTr105/11.9CHICAGO HEIGHTS VORTAC114.2002E
EONr061/23.9PEOTONE VORTAC113.2002E
OXIr285/31.1KNOX VOR/DME115.6000E
IKKr047/33.0KANKAKEE VOR/DME111.6000E

 
NDB name  Hdg/Dist  Freq  Var  ID
LA PORTE267/24.835603WIUL .. ..- .-..

Heliport Services

Runway Information

Helipad H1

Dimensions: 20 x 20 ft. / 6 x 6 m
Surface: concrete
Traffic pattern: leftleft
Markings: basic

Heliport Ownership and Management from official FAA records

Ownership: Privately-owned
Owner: KIRK
3218 E 84TH PLACE, SUITE D
MERRIVILLE, IN 46410
Phone 954-629-8027
Manager: EDWARD A KIRK
1314 E LAS OLAS BLVD
FT. LAUDERDALE, FL 33301-2334
Phone 954-629-8027
219-942-0044

Additional Remarks

A52-H1 130' PLINE 2150' SW; LIGHTED 100' F.M. TWR 300' NNE; LIGHTED 175' MICROWAVE TWR 1200' N; LIGHTED 100' PHONE TWR 500' S.
PERMISSION NEEDED TO LAND
FOR CD CTC CHICAGO APCH AT 847-289-0926.

Instrument Procedures

There are no published instrument procedures at 43II.

Some nearby airports with instrument procedures:

05C - Griffith-Merrillville Airport (5 nm NW)
3HO - Hobart Sky Ranch Airport (7 nm N)
KIGQ - Lansing Municipal Airport (11 nm NW)
KGYY - Gary/Chicago International Airport (11 nm NW)
KVPZ - Porter County Regional Airport (14 nm E)
C56 - Bult Field Airport (17 nm W)
 
Loc | Ops | Rwys | IFR | FBO | Links
Com | Nav | Svcs | Stats | Notes
Area around 43II (Kirk Heliport)
 
Road maps at: MapQuest Bing Google
 
Aerial photo
No photo
 
Sectional chart

 
Airport distance calculator
Flying to Kirk Heliport? Find the distance to fly.

From to 43II

Sunrise and sunset
Times for 20-Jan-2020
 Local
(UTC-6)
 Zulu
(UTC)
Morning civil twilight06:4212:42
Sunrise07:1213:12
Sunset16:4922:49
Evening civil twilight17:1923:19

Current date and time
Zulu (UTC)  20-Jan-2020 20:56:58
Local (UTC-6)  20-Jan-2020 14:56:58
 
METAR
KIGQ 
11nm NW 
202035Z AUTO 00000KT 10SM SCT020 OVC040 M03/M06 A3057 RMK AO2 T10261059
KGYY 
11nm NW 
201945Z 24006KT 2 1/2SM -SN OVC020 M03/M06 A3059
KVPZ 
14nm E 
202042Z AUTO 00000KT 7SM SCT018 OVC034 M03/M08 A3056 RMK AO2 SNB11E20 P0000 T10331078 $
TAF
KGYY 
11nm NW 
201740Z 2018/2118 VRB06KT 6SM -SN SCT015 BKN025 OVC035 TEMPO 2018/2021 2SM -SHSN BKN015 OVC025 FM202300 32005KT P6SM SCT035 FM211400 24008KT P6SM SKC
NOTAMs
Click for the latest NOTAMs
NOTAMs are issued by the DoD/FAA and will open in a separate window not controlled by AirNav.

 

 
 

Would you like to see your business listed on this page?

 If your business provides an interesting product or service to pilots, flight crews, aircraft, or users of the Kirk Heliport, you should consider listing it here.  To start the listing process, click on the button below
 
Add a business
 

Other Pages about Kirk Heliport

Update a link
 
Copyright © AirNav, LLC. All rights reserved. Privacy Policy  Contact